sensor_id;sensor_type;location;lat;lon;timestamp;temperature;humidity
38361;DHT22;42005;48.044;14.416;2024-03-23T00:51:46;11.70;91.80
38361;DHT22;42005;48.044;14.416;2024-03-23T00:54:11;11.70;91.80
38361;DHT22;42005;48.044;14.416;2024-03-23T00:56:40;11.60;91.90
38361;DHT22;42005;48.044;14.416;2024-03-23T00:59:08;11.60;92.10
38361;DHT22;42005;48.044;14.416;2024-03-23T01:01:37;11.40;92.60
38361;DHT22;42005;48.044;14.416;2024-03-23T01:04:07;11.30;92.90
38361;DHT22;42005;48.044;14.416;2024-03-23T01:06:33;11.20;93.40
38361;DHT22;42005;48.044;14.416;2024-03-23T01:09:01;11.20;93.30
38361;DHT22;42005;48.044;14.416;2024-03-23T01:11:30;11.30;93.50
38361;DHT22;42005;48.044;14.416;2024-03-23T01:13:58;11.40;93.40
38361;DHT22;42005;48.044;14.416;2024-03-23T01:16:23;11.40;93.30
38361;DHT22;42005;48.044;14.416;2024-03-23T01:18:51;11.40;93.50
38361;DHT22;42005;48.044;14.416;2024-03-23T01:21:18;11.40;93.20
38361;DHT22;42005;48.044;14.416;2024-03-23T01:23:48;11.40;93.20
38361;DHT22;42005;48.044;14.416;2024-03-23T01:26:14;11.40;93.10
38361;DHT22;42005;48.044;14.416;2024-03-23T01:28:43;11.40;93.50
38361;DHT22;42005;48.044;14.416;2024-03-23T01:31:09;11.40;93.30
38361;DHT22;42005;48.044;14.416;2024-03-23T01:33:35;11.30;93.00
38361;DHT22;42005;48.044;14.416;2024-03-23T01:36:01;11.40;93.10
38361;DHT22;42005;48.044;14.416;2024-03-23T01:38:30;11.30;92.80
38361;DHT22;42005;48.044;14.416;2024-03-23T01:40:57;11.30;92.80
38361;DHT22;42005;48.044;14.416;2024-03-23T01:43:23;11.30;93.20
38361;DHT22;42005;48.044;14.416;2024-03-23T01:45:53;11.40;93.60
38361;DHT22;42005;48.044;14.416;2024-03-23T01:48:24;11.40;93.40
38361;DHT22;42005;48.044;14.416;2024-03-23T01:50:52;11.40;93.60
38361;DHT22;42005;48.044;14.416;2024-03-23T01:53:18;11.40;93.10
38361;DHT22;42005;48.044;14.416;2024-03-23T01:55:47;11.40;93.50
38361;DHT22;42005;48.044;14.416;2024-03-23T01:58:13;11.40;93.20
38361;DHT22;42005;48.044;14.416;2024-03-23T02:00:40;11.40;92.90
38361;DHT22;42005;48.044;14.416;2024-03-23T02:03:27;11.40;93.00
38361;DHT22;42005;48.044;14.416;2024-03-23T02:05:54;11.40;93.10
38361;DHT22;42005;48.044;14.416;2024-03-23T02:08:22;11.40;93.60
38361;DHT22;42005;48.044;14.416;2024-03-23T02:10:49;11.40;93.70
38361;DHT22;42005;48.044;14.416;2024-03-23T02:13:15;11.30;93.50
38361;DHT22;42005;48.044;14.416;2024-03-23T02:15:44;11.30;93.00
38361;DHT22;42005;48.044;14.416;2024-03-23T02:18:10;11.30;93.50
38361;DHT22;42005;48.044;14.416;2024-03-23T02:20:37;11.30;93.20
38361;DHT22;42005;48.044;14.416;2024-03-23T02:23:04;11.30;93.20
38361;DHT22;42005;48.044;14.416;2024-03-23T02:25:32;11.30;93.30
38361;DHT22;42005;48.044;14.416;2024-03-23T02:28:03;11.30;93.40
38361;DHT22;42005;48.044;14.416;2024-03-23T02:30:29;11.30;93.10
38361;DHT22;42005;48.044;14.416;2024-03-23T02:32:56;11.30;92.60
38361;DHT22;42005;48.044;14.416;2024-03-23T02:35:23;11.30;92.50
38361;DHT22;42005;48.044;14.416;2024-03-23T02:37:52;11.20;91.90
38361;DHT22;42005;48.044;14.416;2024-03-23T02:40:20;11.20;91.40
38361;DHT22;42005;48.044;14.416;2024-03-23T02:42:46;11.20;91.60
38361;DHT22;42005;48.044;14.416;2024-03-23T02:45:14;11.20;91.80
38361;DHT22;42005;48.044;14.416;2024-03-23T02:47:40;11.20;91.30
38361;DHT22;42005;48.044;14.416;2024-03-23T02:50:07;11.20;90.00
38361;DHT22;42005;48.044;14.416;2024-03-23T02:52:36;11.20;90.20
38361;DHT22;42005;48.044;14.416;2024-03-23T02:55:02;11.30;90.00
38361;DHT22;42005;48.044;14.416;2024-03-23T02:57:29;11.30;90.80
38361;DHT22;42005;48.044;14.416;2024-03-23T02:59:55;11.30;89.50
38361;DHT22;42005;48.044;14.416;2024-03-23T03:02:21;11.30;89.80
38361;DHT22;42005;48.044;14.416;2024-03-23T03:04:50;11.40;90.70
38361;DHT22;42005;48.044;14.416;2024-03-23T03:07:18;11.40;91.30
38361;DHT22;42005;48.044;14.416;2024-03-23T03:09:44;11.40;91.70
38361;DHT22;42005;48.044;14.416;2024-03-23T03:12:10;11.40;91.10
38361;DHT22;42005;48.044;14.416;2024-03-23T03:14:40;11.40;90.80
38361;DHT22;42005;48.044;14.416;2024-03-23T03:17:06;11.30;91.10
38361;DHT22;42005;48.044;14.416;2024-03-23T03:19:32;11.30;91.70
38361;DHT22;42005;48.044;14.416;2024-03-23T03:22:00;11.30;91.10
38361;DHT22;42005;48.044;14.416;2024-03-23T03:24:26;11.30;91.70
38361;DHT22;42005;48.044;14.416;2024-03-23T03:26:52;11.20;91.10
38361;DHT22;42005;48.044;14.416;2024-03-23T03:29:18;11.20;91.40
38361;DHT22;42005;48.044;14.416;2024-03-23T03:31:44;11.20;91.10
38361;DHT22;42005;48.044;14.416;2024-03-23T03:34:10;11.20;91.60
38361;DHT22;42005;48.044;14.416;2024-03-23T03:36:36;11.20;91.60
38361;DHT22;42005;48.044;14.416;2024-03-23T03:39:02;11.10;91.40
38361;DHT22;42005;48.044;14.416;2024-03-23T03:41:33;11.10;91.20
38361;DHT22;42005;48.044;14.416;2024-03-23T03:44:04;11.10;91.30
38361;DHT22;42005;48.044;14.416;2024-03-23T03:46:37;11.00;91.40
38361;DHT22;42005;48.044;14.416;2024-03-23T03:49:02;11.00;91.60
38361;DHT22;42005;48.044;14.416;2024-03-23T03:51:28;10.90;91.70
38361;DHT22;42005;48.044;14.416;2024-03-23T03:53:54;10.90;91.60
38361;DHT22;42005;48.044;14.416;2024-03-23T03:56:20;10.90;91.90
38361;DHT22;42005;48.044;14.416;2024-03-23T03:58:50;10.80;92.00
38361;DHT22;42005;48.044;14.416;2024-03-23T04:01:16;10.80;92.20
38361;DHT22;42005;48.044;14.416;2024-03-23T04:03:43;10.80;91.80
38361;DHT22;42005;48.044;14.416;2024-03-23T04:06:10;10.80;92.10
38361;DHT22;42005;48.044;14.416;2024-03-23T04:08:36;10.70;92.10
38361;DHT22;42005;48.044;14.416;2024-03-23T04:11:02;10.70;92.30
38361;DHT22;42005;48.044;14.416;2024-03-23T04:13:28;10.60;92.50
38361;DHT22;42005;48.044;14.416;2024-03-23T04:15:56;10.60;92.80
38361;DHT22;42005;48.044;14.416;2024-03-23T04:18:24;10.60;92.90
38361;DHT22;42005;48.044;14.416;2024-03-23T04:20:51;10.50;92.50
38361;DHT22;42005;48.044;14.416;2024-03-23T04:23:20;10.60;92.70
38361;DHT22;42005;48.044;14.416;2024-03-23T04:25:46;10.50;92.90
38361;DHT22;42005;48.044;14.416;2024-03-23T04:28:12;10.50;92.80
38361;DHT22;42005;48.044;14.416;2024-03-23T04:30:40;10.50;92.50
38361;DHT22;42005;48.044;14.416;2024-03-23T04:33:06;10.40;92.50
38361;DHT22;42005;48.044;14.416;2024-03-23T04:35:32;10.40;92.40
38361;DHT22;42005;48.044;14.416;2024-03-23T04:37:58;10.40;92.40
38361;DHT22;42005;48.044;14.416;2024-03-23T04:40:25;10.40;92.20
38361;DHT22;42005;48.044;14.416;2024-03-23T04:42:51;10.40;92.50
38361;DHT22;42005;48.044;14.416;2024-03-23T04:45:17;10.30;92.30
38361;DHT22;42005;48.044;14.416;2024-03-23T04:47:43;10.20;92.30
38361;DHT22;42005;48.044;14.416;2024-03-23T04:50:09;10.20;92.60
38361;DHT22;42005;48.044;14.416;2024-03-23T04:52:39;10.20;92.60
38361;DHT22;42005;48.044;14.416;2024-03-23T04:55:08;10.10;93.10
38361;DHT22;42005;48.044;14.416;2024-03-23T04:57:37;10.10;93.40
38361;DHT22;42005;48.044;14.416;2024-03-23T05:00:04;10.00;93.50
38361;DHT22;42005;48.044;14.416;2024-03-23T05:02:38;10.00;93.70
38361;DHT22;42005;48.044;14.416;2024-03-23T05:05:04;9.90;94.20
38361;DHT22;42005;48.044;14.416;2024-03-23T05:07:33;9.90;94.40
38361;DHT22;42005;48.044;14.416;2024-03-23T05:09:58;9.90;94.30
38361;DHT22;42005;48.044;14.416;2024-03-23T05:12:27;9.90;94.90
38361;DHT22;42005;48.044;14.416;2024-03-23T05:14:53;9.90;95.10
38361;DHT22;42005;48.044;14.416;2024-03-23T05:17:18;9.80;95.10
38361;DHT22;42005;48.044;14.416;2024-03-23T05:19:44;9.80;94.90
38361;DHT22;42005;48.044;14.416;2024-03-23T05:22:12;9.60;95.30
38361;DHT22;42005;48.044;14.416;2024-03-23T05:24:38;9.60;95.50
38361;DHT22;42005;48.044;14.416;2024-03-23T05:27:04;9.60;95.60
38361;DHT22;42005;48.044;14.416;2024-03-23T05:29:32;9.60;95.50
38361;DHT22;42005;48.044;14.416;2024-03-23T05:31:58;9.50;95.20
38361;DHT22;42005;48.044;14.416;2024-03-23T05:34:24;9.50;95.30
38361;DHT22;42005;48.044;14.416;2024-03-23T05:36:53;9.50;95.50
38361;DHT22;42005;48.044;14.416;2024-03-23T05:39:19;9.50;95.40
38361;DHT22;42005;48.044;14.416;2024-03-23T05:41:48;9.50;95.40
38361;DHT22;42005;48.044;14.416;2024-03-23T05:44:14;9.40;95.60
38361;DHT22;42005;48.044;14.416;2024-03-23T05:46:41;9.40;95.50
38361;DHT22;42005;48.044;14.416;2024-03-23T05:49:07;9.40;95.60
38361;DHT22;42005;48.044;14.416;2024-03-23T05:51:33;9.40;95.80
38361;DHT22;42005;48.044;14.416;2024-03-23T05:54:02;9.40;96.20
38361;DHT22;42005;48.044;14.416;2024-03-23T05:56:28;9.40;96.20
38361;DHT22;42005;48.044;14.416;2024-03-23T05:58:57;9.30;96.40
38361;DHT22;42005;48.044;14.416;2024-03-23T06:01:25;9.30;96.40
38361;DHT22;42005;48.044;14.416;2024-03-23T06:03:54;9.20;96.50
38361;DHT22;42005;48.044;14.416;2024-03-23T06:06:20;9.30;96.70
38361;DHT22;42005;48.044;14.416;2024-03-23T06:08:48;9.30;96.50
38361;DHT22;42005;48.044;14.416;2024-03-23T06:11:17;9.30;96.50
38361;DHT22;42005;48.044;14.416;2024-03-23T06:13:43;9.30;96.60
38361;DHT22;42005;48.044;14.416;2024-03-23T06:16:11;9.40;96.70
38361;DHT22;42005;48.044;14.416;2024-03-23T06:18:37;9.40;96.50
38361;DHT22;42005;48.044;14.416;2024-03-23T06:21:03;9.50;96.40
38361;DHT22;42005;48.044;14.416;2024-03-23T06:23:29;9.50;96.40
38361;DHT22;42005;48.044;14.416;2024-03-23T06:25:55;9.50;96.20
38361;DHT22;42005;48.044;14.416;2024-03-23T06:28:21;9.50;96.50
38361;DHT22;42005;48.044;14.416;2024-03-23T06:30:54;9.50;96.60
38361;DHT22;42005;48.044;14.416;2024-03-23T06:33:20;9.50;96.10
38361;DHT22;42005;48.044;14.416;2024-03-23T06:35:50;9.60;96.10
38361;DHT22;42005;48.044;14.416;2024-03-23T06:38:20;9.70;95.90
38361;DHT22;42005;48.044;14.416;2024-03-23T06:40:48;9.80;95.40
38361;DHT22;42005;48.044;14.416;2024-03-23T06:43:16;9.90;95.30
38361;DHT22;42005;48.044;14.416;2024-03-23T06:45:44;10.00;94.20
38361;DHT22;42005;48.044;14.416;2024-03-23T06:48:17;10.10;93.40
38361;DHT22;42005;48.044;14.416;2024-03-23T06:50:48;10.20;93.40
38361;DHT22;42005;48.044;14.416;2024-03-23T06:53:15;10.20;91.90
38361;DHT22;42005;48.044;14.416;2024-03-23T06:55:41;10.40;91.60
38361;DHT22;42005;48.044;14.416;2024-03-23T06:58:08;10.40;91.10
38361;DHT22;42005;48.044;14.416;2024-03-23T07:00:34;10.50;90.50
38361;DHT22;42005;48.044;14.416;2024-03-23T07:03:02;10.60;90.50
38361;DHT22;42005;48.044;14.416;2024-03-23T07:05:29;10.70;90.40
38361;DHT22;42005;48.044;14.416;2024-03-23T07:07:55;10.80;88.70
38361;DHT22;42005;48.044;14.416;2024-03-23T07:10:21;10.80;86.70
38361;DHT22;42005;48.044;14.416;2024-03-23T07:12:47;10.90;86.10
38361;DHT22;42005;48.044;14.416;2024-03-23T07:15:13;11.00;86.80
38361;DHT22;42005;48.044;14.416;2024-03-23T07:17:39;11.10;88.80
38361;DHT22;42005;48.044;14.416;2024-03-23T07:20:05;11.10;88.40
38361;DHT22;42005;48.044;14.416;2024-03-23T07:22:36;11.30;87.30
38361;DHT22;42005;48.044;14.416;2024-03-23T07:25:02;11.30;84.70
38361;DHT22;42005;48.044;14.416;2024-03-23T07:27:29;11.50;83.90
38361;DHT22;42005;48.044;14.416;2024-03-23T07:29:54;11.50;83.40
38361;DHT22;42005;48.044;14.416;2024-03-23T07:32:20;11.70;82.00
38361;DHT22;42005;48.044;14.416;2024-03-23T07:34:47;11.80;82.30
38361;DHT22;42005;48.044;14.416;2024-03-23T07:37:14;11.90;84.30
38361;DHT22;42005;48.044;14.416;2024-03-23T07:39:40;12.00;84.60
38361;DHT22;42005;48.044;14.416;2024-03-23T07:42:06;12.00;83.80
38361;DHT22;42005;48.044;14.416;2024-03-23T07:44:32;12.10;83.10
38361;DHT22;42005;48.044;14.416;2024-03-23T07:47:03;12.20;83.70
38361;DHT22;42005;48.044;14.416;2024-03-23T07:49:29;12.40;83.30
38361;DHT22;42005;48.044;14.416;2024-03-23T07:51:55;12.50;82.90
38361;DHT22;42005;48.044;14.416;2024-03-23T07:54:21;12.60;84.50
38361;DHT22;42005;48.044;14.416;2024-03-23T07:56:47;12.70;84.70
38361;DHT22;42005;48.044;14.416;2024-03-23T07:59:13;12.80;85.10
38361;DHT22;42005;48.044;14.416;2024-03-23T08:01:39;13.00;82.50
38361;DHT22;42005;48.044;14.416;2024-03-23T08:04:05;13.10;80.50
38361;DHT22;42005;48.044;14.416;2024-03-23T08:06:31;13.20;78.60
38361;DHT22;42005;48.044;14.416;2024-03-23T08:08:58;13.40;78.00
38361;DHT22;42005;48.044;14.416;2024-03-23T08:11:31;13.50;77.00
38361;DHT22;42005;48.044;14.416;2024-03-23T08:14:00;13.70;75.30
38361;DHT22;42005;48.044;14.416;2024-03-23T08:16:27;13.80;77.80
38361;DHT22;42005;48.044;14.416;2024-03-23T08:18:55;14.00;78.20
38361;DHT22;42005;48.044;14.416;2024-03-23T08:21:22;14.20;78.70
38361;DHT22;42005;48.044;14.416;2024-03-23T08:23:48;14.40;77.30
38361;DHT22;42005;48.044;14.416;2024-03-23T08:26:18;14.60;75.80
38361;DHT22;42005;48.044;14.416;2024-03-23T08:28:44;14.70;73.10
38361;DHT22;42005;48.044;14.416;2024-03-23T08:31:11;14.90;73.50
38361;DHT22;42005;48.044;14.416;2024-03-23T08:33:38;15.20;75.40
38361;DHT22;42005;48.044;14.416;2024-03-23T08:36:09;15.40;74.70
38361;DHT22;42005;48.044;14.416;2024-03-23T08:38:35;15.60;68.80
38361;DHT22;42005;48.044;14.416;2024-03-23T08:41:09;15.90;67.90
38361;DHT22;42005;48.044;14.416;2024-03-23T08:43:39;16.10;68.10
38361;DHT22;42005;48.044;14.416;2024-03-23T08:46:13;16.30;63.20
38361;DHT22;42005;48.044;14.416;2024-03-23T08:48:41;16.60;56.20
